sensor_id;sensor_type;location;lat;lon;timestamp;temperature;humidity
80176;DHT22;71945;42.122;24.732;2023-08-31T00:00:41;27.80;28.10
80176;DHT22;71945;42.122;24.732;2023-08-31T00:03:07;27.80;28.10
80176;DHT22;71945;42.122;24.732;2023-08-31T00:05:37;27.80;28.10
80176;DHT22;71945;42.122;24.732;2023-08-31T00:08:03;27.80;28.10
80176;DHT22;71945;42.122;24.732;2023-08-31T00:10:29;27.80;28.10
80176;DHT22;71945;42.122;24.732;2023-08-31T00:12:55;27.70;28.00
80176;DHT22;71945;42.122;24.732;2023-08-31T00:15:21;27.70;28.00
80176;DHT22;71945;42.122;24.732;2023-08-31T00:17:46;27.60;28.00
80176;DHT22;71945;42.122;24.732;2023-08-31T00:20:13;27.60;28.00
80176;DHT22;71945;42.122;24.732;2023-08-31T00:22:38;27.50;28.20
80176;DHT22;71945;42.122;24.732;2023-08-31T00:25:05;27.50;28.30
80176;DHT22;71945;42.122;24.732;2023-08-31T00:27:34;27.60;28.50
80176;DHT22;71945;42.122;24.732;2023-08-31T00:30:06;27.60;28.20
80176;DHT22;71945;42.122;24.732;2023-08-31T00:32:36;27.60;28.00
80176;DHT22;71945;42.122;24.732;2023-08-31T00:35:02;27.60;28.00
80176;DHT22;71945;42.122;24.732;2023-08-31T00:37:29;27.60;28.00
80176;DHT22;71945;42.122;24.732;2023-08-31T00:39:55;27.60;28.00
80176;DHT22;71945;42.122;24.732;2023-08-31T00:42:20;27.50;27.90
80176;DHT22;71945;42.122;24.732;2023-08-31T00:44:47;27.50;27.90
80176;DHT22;71945;42.122;24.732;2023-08-31T00:47:13;27.40;28.20
80176;DHT22;71945;42.122;24.732;2023-08-31T00:49:40;27.40;28.10
80176;DHT22;71945;42.122;24.732;2023-08-31T00:52:07;27.50;28.40
80176;DHT22;71945;42.122;24.732;2023-08-31T00:54:34;27.40;28.50
80176;DHT22;71945;42.122;24.732;2023-08-31T00:57:00;27.40;28.30
80176;DHT22;71945;42.122;24.732;2023-08-31T00:59:26;27.40;28.30
80176;DHT22;71945;42.122;24.732;2023-08-31T01:02:20;27.40;28.50
80176;DHT22;71945;42.122;24.732;2023-08-31T01:07:39;27.40;29.60
80176;DHT22;71945;42.122;24.732;2023-08-31T01:13:02;27.40;28.60
80176;DHT22;71945;42.122;24.732;2023-08-31T01:15:30;27.40;28.70
80176;DHT22;71945;42.122;24.732;2023-08-31T01:17:58;27.30;28.60
80176;DHT22;71945;42.122;24.732;2023-08-31T01:20:41;27.40;28.50
80176;DHT22;71945;42.122;24.732;2023-08-31T01:23:16;27.40;28.80
80176;DHT22;71945;42.122;24.732;2023-08-31T01:25:41;27.40;28.30
80176;DHT22;71945;42.122;24.732;2023-08-31T01:28:09;27.30;28.20
80176;DHT22;71945;42.122;24.732;2023-08-31T01:30:35;27.30;28.30
80176;DHT22;71945;42.122;24.732;2023-08-31T01:33:01;27.30;29.30
80176;DHT22;71945;42.122;24.732;2023-08-31T01:35:34;27.30;28.30
80176;DHT22;71945;42.122;24.732;2023-08-31T01:38:03;27.30;28.20
80176;DHT22;71945;42.122;24.732;2023-08-31T01:41:05;27.30;28.50
80176;DHT22;71945;42.122;24.732;2023-08-31T01:43:32;27.30;28.50
80176;DHT22;71945;42.122;24.732;2023-08-31T01:46:01;27.30;28.30
80176;DHT22;71945;42.122;24.732;2023-08-31T01:48:27;27.40;28.10
80176;DHT22;71945;42.122;24.732;2023-08-31T01:50:53;27.40;28.10
80176;DHT22;71945;42.122;24.732;2023-08-31T01:53:18;27.30;28.30
80176;DHT22;71945;42.122;24.732;2023-08-31T01:55:44;27.30;28.30
80176;DHT22;71945;42.122;24.732;2023-08-31T01:58:09;27.30;28.40
80176;DHT22;71945;42.122;24.732;2023-08-31T02:00:35;27.30;28.20
80176;DHT22;71945;42.122;24.732;2023-08-31T02:03:04;27.40;28.20
80176;DHT22;71945;42.122;24.732;2023-08-31T02:05:29;27.40;27.80
80176;DHT22;71945;42.122;24.732;2023-08-31T02:07:55;27.40;28.40
80176;DHT22;71945;42.122;24.732;2023-08-31T02:10:21;27.30;28.40
80176;DHT22;71945;42.122;24.732;2023-08-31T02:12:47;27.20;28.70
80176;DHT22;71945;42.122;24.732;2023-08-31T02:15:14;27.20;28.70
80176;DHT22;71945;42.122;24.732;2023-08-31T02:17:43;27.30;28.60
80176;DHT22;71945;42.122;24.732;2023-08-31T02:20:09;27.30;28.80
80176;DHT22;71945;42.122;24.732;2023-08-31T02:22:34;27.30;28.70
80176;DHT22;71945;42.122;24.732;2023-08-31T02:25:03;27.30;28.50
80176;DHT22;71945;42.122;24.732;2023-08-31T02:27:29;27.30;28.40
80176;DHT22;71945;42.122;24.732;2023-08-31T02:29:55;27.30;28.60
80176;DHT22;71945;42.122;24.732;2023-08-31T02:32:21;27.30;28.60
80176;DHT22;71945;42.122;24.732;2023-08-31T02:34:46;27.40;28.40
80176;DHT22;71945;42.122;24.732;2023-08-31T02:37:12;27.30;28.40
80176;DHT22;71945;42.122;24.732;2023-08-31T02:39:40;27.30;28.20
80176;DHT22;71945;42.122;24.732;2023-08-31T02:42:06;27.30;28.20
80176;DHT22;71945;42.122;24.732;2023-08-31T02:44:32;27.30;28.20
80176;DHT22;71945;42.122;24.732;2023-08-31T02:46:57;27.30;28.30
80176;DHT22;71945;42.122;24.732;2023-08-31T02:49:23;27.20;28.60
80176;DHT22;71945;42.122;24.732;2023-08-31T02:51:49;27.30;28.40
80176;DHT22;71945;42.122;24.732;2023-08-31T02:54:15;27.20;28.30
80176;DHT22;71945;42.122;24.732;2023-08-31T02:56:41;27.20;28.50
80176;DHT22;71945;42.122;24.732;2023-08-31T02:59:07;27.20;28.50
80176;DHT22;71945;42.122;24.732;2023-08-31T03:01:32;27.20;28.60
80176;DHT22;71945;42.122;24.732;2023-08-31T03:03:58;27.10;28.60
80176;DHT22;71945;42.122;24.732;2023-08-31T03:06:23;27.10;28.60
80176;DHT22;71945;42.122;24.732;2023-08-31T03:08:49;27.10;28.60
80176;DHT22;71945;42.122;24.732;2023-08-31T03:11:15;27.10;28.50
80176;DHT22;71945;42.122;24.732;2023-08-31T03:13:41;27.10;28.60
80176;DHT22;71945;42.122;24.732;2023-08-31T03:16:07;27.00;28.80
80176;DHT22;71945;42.122;24.732;2023-08-31T03:18:33;27.00;28.80
80176;DHT22;71945;42.122;24.732;2023-08-31T03:20:59;27.00;28.90
80176;DHT22;71945;42.122;24.732;2023-08-31T03:23:25;27.00;28.70
80176;DHT22;71945;42.122;24.732;2023-08-31T03:25:51;27.00;28.80
80176;DHT22;71945;42.122;24.732;2023-08-31T03:28:16;27.00;28.80
80176;DHT22;71945;42.122;24.732;2023-08-31T03:30:42;27.00;28.90
80176;DHT22;71945;42.122;24.732;2023-08-31T03:33:10;27.00;28.50
80176;DHT22;71945;42.122;24.732;2023-08-31T03:35:36;27.00;28.70
80176;DHT22;71945;42.122;24.732;2023-08-31T03:38:02;26.90;28.80
80176;DHT22;71945;42.122;24.732;2023-08-31T03:40:28;26.90;28.70
80176;DHT22;71945;42.122;24.732;2023-08-31T03:42:54;26.90;28.70
80176;DHT22;71945;42.122;24.732;2023-08-31T03:45:20;26.90;28.90
80176;DHT22;71945;42.122;24.732;2023-08-31T03:47:46;26.80;29.30
80176;DHT22;71945;42.122;24.732;2023-08-31T03:50:12;26.80;29.60
80176;DHT22;71945;42.122;24.732;2023-08-31T03:52:37;26.80;29.30
80176;DHT22;71945;42.122;24.732;2023-08-31T03:55:03;26.80;29.20
80176;DHT22;71945;42.122;24.732;2023-08-31T03:57:29;26.80;29.30
80176;DHT22;71945;42.122;24.732;2023-08-31T03:59:58;26.70;29.20
80176;DHT22;71945;42.122;24.732;2023-08-31T04:02:23;26.70;29.20
80176;DHT22;71945;42.122;24.732;2023-08-31T04:04:49;26.70;29.60
80176;DHT22;71945;42.122;24.732;2023-08-31T04:07:14;26.60;29.90
80176;DHT22;71945;42.122;24.732;2023-08-31T04:09:40;26.60;29.70
80176;DHT22;71945;42.122;24.732;2023-08-31T04:12:06;26.50;29.70
80176;DHT22;71945;42.122;24.732;2023-08-31T04:14:32;26.50;29.50
80176;DHT22;71945;42.122;24.732;2023-08-31T04:16:57;26.50;29.90
80176;DHT22;71945;42.122;24.732;2023-08-31T04:19:23;26.50;29.70
80176;DHT22;71945;42.122;24.732;2023-08-31T04:21:49;26.40;29.90
80176;DHT22;71945;42.122;24.732;2023-08-31T04:24:14;26.40;30.00
80176;DHT22;71945;42.122;24.732;2023-08-31T04:26:40;26.40;30.00
80176;DHT22;71945;42.122;24.732;2023-08-31T04:29:06;26.40;30.10
80176;DHT22;71945;42.122;24.732;2023-08-31T04:31:32;26.40;30.20
80176;DHT22;71945;42.122;24.732;2023-08-31T04:33:58;26.50;30.10
80176;DHT22;71945;42.122;24.732;2023-08-31T04:36:24;26.50;30.20
80176;DHT22;71945;42.122;24.732;2023-08-31T04:38:51;26.50;30.20
80176;DHT22;71945;42.122;24.732;2023-08-31T04:41:16;26.50;30.10
80176;DHT22;71945;42.122;24.732;2023-08-31T04:43:45;26.50;30.00
80176;DHT22;71945;42.122;24.732;2023-08-31T04:46:13;26.60;30.00
80176;DHT22;71945;42.122;24.732;2023-08-31T04:48:39;26.60;30.00
80176;DHT22;71945;42.122;24.732;2023-08-31T04:51:05;26.60;30.00
80176;DHT22;71945;42.122;24.732;2023-08-31T04:53:31;26.60;30.00
80176;DHT22;71945;42.122;24.732;2023-08-31T04:55:58;26.60;30.00
80176;DHT22;71945;42.122;24.732;2023-08-31T04:58:23;26.70;30.00
80176;DHT22;71945;42.122;24.732;2023-08-31T05:00:51;26.80;30.00
80176;DHT22;71945;42.122;24.732;2023-08-31T05:03:17;26.80;30.00
80176;DHT22;71945;42.122;24.732;2023-08-31T05:05:43;26.80;30.00
80176;DHT22;71945;42.122;24.732;2023-08-31T05:08:09;26.90;29.70
80176;DHT22;71945;42.122;24.732;2023-08-31T05:10:35;26.90;29.80
80176;DHT22;71945;42.122;24.732;2023-08-31T05:13:01;27.00;29.70
80176;DHT22;71945;42.122;24.732;2023-08-31T05:15:27;27.00;29.70
80176;DHT22;71945;42.122;24.732;2023-08-31T05:17:53;27.10;29.70
80176;DHT22;71945;42.122;24.732;2023-08-31T05:20:19;27.20;29.60
80176;DHT22;71945;42.122;24.732;2023-08-31T05:22:44;27.20;29.20
80176;DHT22;71945;42.122;24.732;2023-08-31T05:25:10;27.20;29.40
80176;DHT22;71945;42.122;24.732;2023-08-31T05:27:36;27.30;29.30
80176;DHT22;71945;42.122;24.732;2023-08-31T05:30:01;27.30;29.30
80176;DHT22;71945;42.122;24.732;2023-08-31T05:32:30;27.50;29.10
80176;DHT22;71945;42.122;24.732;2023-08-31T05:34:56;27.60;29.40
80176;DHT22;71945;42.122;24.732;2023-08-31T05:37:22;27.60;29.00
80176;DHT22;71945;42.122;24.732;2023-08-31T05:39:48;27.60;29.10
80176;DHT22;71945;42.122;24.732;2023-08-31T05:42:15;27.60;28.70
80176;DHT22;71945;42.122;24.732;2023-08-31T05:44:40;27.70;28.40
80176;DHT22;71945;42.122;24.732;2023-08-31T05:47:06;27.80;28.10
80176;DHT22;71945;42.122;24.732;2023-08-31T05:49:32;27.90;28.30
80176;DHT22;71945;42.122;24.732;2023-08-31T05:51:58;27.90;28.20
80176;DHT22;71945;42.122;24.732;2023-08-31T05:54:24;27.90;28.10
80176;DHT22;71945;42.122;24.732;2023-08-31T05:56:49;27.90;28.10
80176;DHT22;71945;42.122;24.732;2023-08-31T05:59:15;28.00;27.60
80176;DHT22;71945;42.122;24.732;2023-08-31T06:01:41;28.10;27.20
80176;DHT22;71945;42.122;24.732;2023-08-31T06:04:07;28.10;27.50
80176;DHT22;71945;42.122;24.732;2023-08-31T06:06:33;28.10;27.20
80176;DHT22;71945;42.122;24.732;2023-08-31T06:09:01;28.10;27.30
80176;DHT22;71945;42.122;24.732;2023-08-31T06:11:27;28.00;27.50
80176;DHT22;71945;42.122;24.732;2023-08-31T06:13:53;28.00;27.20
80176;DHT22;71945;42.122;24.732;2023-08-31T06:16:18;28.00;27.30
80176;DHT22;71945;42.122;24.732;2023-08-31T06:18:47;27.90;27.40
80176;DHT22;71945;42.122;24.732;2023-08-31T06:21:13;27.90;27.50
80176;DHT22;71945;42.122;24.732;2023-08-31T06:23:38;27.90;27.80
80176;DHT22;71945;42.122;24.732;2023-08-31T06:26:04;27.90;28.10
80176;DHT22;71945;42.122;24.732;2023-08-31T06:28:29;27.90;27.90
80176;DHT22;71945;42.122;24.732;2023-08-31T06:30:55;27.90;27.70
80176;DHT22;71945;42.122;24.732;2023-08-31T06:33:21;27.90;27.60
80176;DHT22;71945;42.122;24.732;2023-08-31T06:35:47;27.90;27.60
80176;DHT22;71945;42.122;24.732;2023-08-31T06:38:17;27.90;27.70
80176;DHT22;71945;42.122;24.732;2023-08-31T06:40:43;28.10;27.80
80176;DHT22;71945;42.122;24.732;2023-08-31T06:43:09;28.20;27.50
80176;DHT22;71945;42.122;24.732;2023-08-31T06:45:34;28.30;27.20
80176;DHT22;71945;42.122;24.732;2023-08-31T06:48:01;28.40;27.20
80176;DHT22;71945;42.122;24.732;2023-08-31T06:50:27;28.50;27.20
80176;DHT22;71945;42.122;24.732;2023-08-31T06:52:52;28.50;28.00
80176;DHT22;71945;42.122;24.732;2023-08-31T06:55:18;28.60;27.00
80176;DHT22;71945;42.122;24.732;2023-08-31T06:57:43;28.70;27.00
80176;DHT22;71945;42.122;24.732;2023-08-31T07:00:13;28.80;26.50
80176;DHT22;71945;42.122;24.732;2023-08-31T07:02:41;28.90;26.50
80176;DHT22;71945;42.122;24.732;2023-08-31T07:05:25;29.00;26.30
80176;DHT22;71945;42.122;24.732;2023-08-31T07:07:52;29.10;26.20
80176;DHT22;71945;42.122;24.732;2023-08-31T07:10:21;29.20;26.00
80176;DHT22;71945;42.122;24.732;2023-08-31T07:12:47;29.20;25.90
80176;DHT22;71945;42.122;24.732;2023-08-31T07:15:16;29.20;25.70
80176;DHT22;71945;42.122;24.732;2023-08-31T07:17:42;29.10;25.90
80176;DHT22;71945;42.122;24.732;2023-08-31T07:20:08;29.10;26.10
80176;DHT22;71945;42.122;24.732;2023-08-31T07:22:35;29.00;26.20
80176;DHT22;71945;42.122;24.732;2023-08-31T07:25:01;29.00;26.20
80176;DHT22;71945;42.122;24.732;2023-08-31T07:27:28;29.10;26.20
80176;DHT22;71945;42.122;24.732;2023-08-31T07:29:54;29.10;26.20
80176;DHT22;71945;42.122;24.732;2023-08-31T07:32:20;29.10;26.00
80176;DHT22;71945;42.122;24.732;2023-08-31T07:34:55;29.10;26.10
80176;DHT22;71945;42.122;24.732;2023-08-31T07:37:20;29.30;25.90
80176;DHT22;71945;42.122;24.732;2023-08-31T07:39:53;29.30;25.60
80176;DHT22;71945;42.122;24.732;2023-08-31T07:42:19;29.30;25.40
80176;DHT22;71945;42.122;24.732;2023-08-31T07:44:45;29.30;25.60
80176;DHT22;71945;42.122;24.732;2023-08-31T07:47:10;29.40;25.60
80176;DHT22;71945;42.122;24.732;2023-08-31T07:49:36;29.50;25.30
80176;DHT22;71945;42.122;24.732;2023-08-31T07:52:02;29.60;25.50
80176;DHT22;71945;42.122;24.732;2023-08-31T07:54:28;29.60;25.30
80176;DHT22;71945;42.122;24.732;2023-08-31T07:57:02;29.60;30.20
80176;DHT22;71945;42.122;24.732;2023-08-31T07:59:27;29.60;29.40
80176;DHT22;71945;42.122;24.732;2023-08-31T08:01:56;29.50;30.90
80176;DHT22;71945;42.122;24.732;2023-08-31T08:04:24;29.50;29.00
80176;DHT22;71945;42.122;24.732;2023-08-31T08:06:51;29.50;29.00
80176;DHT22;71945;42.122;24.732;2023-08-31T08:09:17;29.50;29.60
80176;DHT22;71945;42.122;24.732;2023-08-31T08:11:43;29.40;28.90
80176;DHT22;71945;42.122;24.732;2023-08-31T08:14:09;29.40;26.30
80176;DHT22;71945;42.122;24.732;2023-08-31T08:16:34;29.40;30.10
80176;DHT22;71945;42.122;24.732;2023-08-31T08:19:01;29.40;28.00
80176;DHT22;71945;42.122;24.732;2023-08-31T08:21:29;29.50;26.40
80176;DHT22;71945;42.122;24.732;2023-08-31T08:23:55;29.50;27.20
80176;DHT22;71945;42.122;24.732;2023-08-31T08:26:21;29.50;28.70
80176;DHT22;71945;42.122;24.732;2023-08-31T08:28:46;29.50;26.90
80176;DHT22;71945;42.122;24.732;2023-08-31T08:31:17;29.60;25.80
80176;DHT22;71945;42.122;24.732;2023-08-31T08:33:45;29.60;27.70
80176;DHT22;71945;42.122;24.732;2023-08-31T08:36:14;29.50;29.30
80176;DHT22;71945;42.122;24.732;2023-08-31T08:38:44;29.50;30.40
80176;DHT22;71945;42.122;24.732;2023-08-31T08:41:10;29.40;30.20
80176;DHT22;71945;42.122;24.732;2023-08-31T08:43:43;29.30;29.30
80176;DHT22;71945;42.122;24.732;2023-08-31T08:46:09;29.30;28.90
80176;DHT22;71945;42.122;24.732;2023-08-31T08:48:39;29.20;28.20
80176;DHT22;71945;42.122;24.732;2023-08-31T08:51:06;29.30;27.40
80176;DHT22;71945;42.122;24.732;2023-08-31T08:53:33;29.20;29.10
80176;DHT22;71945;42.122;24.732;2023-08-31T08:55:59;29.20;28.80
80176;DHT22;71945;42.122;24.732;2023-08-31T08:58:25;29.10;28.70
80176;DHT22;71945;42.122;24.732;2023-08-31T09:00:54;29.00;28.70
80176;DHT22;71945;42.122;24.732;2023-08-31T09:03:22;29.00;28.70
80176;DHT22;71945;42.122;24.732;2023-08-31T09:05:48;29.00;28.70
80176;DHT22;71945;42.122;24.732;2023-08-31T09:08:27;29.20;26.80
80176;DHT22;71945;42.122;24.732;2023-08-31T09:10:55;29.20;27.60
80176;DHT22;71945;42.122;24.732;2023-08-31T09:13:27;29.30;26.10
80176;DHT22;71945;42.122;24.732;2023-08-31T09:15:57;29.40;26.50
80176;DHT22;71945;42.122;24.732;2023-08-31T09:18:30;29.30;27.90
80176;DHT22;71945;42.122;24.732;2023-08-31T09:21:00;29.40;27.00
80176;DHT22;71945;42.122;24.732;2023-08-31T09:23:26;29.40;27.60
80176;DHT22;71945;42.122;24.732;2023-08-31T09:25:55;29.50;27.00
80176;DHT22;71945;42.122;24.732;2023-08-31T09:28:26;29.60;26.90
80176;DHT22;71945;42.122;24.732;2023-08-31T09:30:53;29.70;26.00
80176;DHT22;71945;42.122;24.732;2023-08-31T09:33:20;29.80;26.60
80176;DHT22;71945;42.122;24.732;2023-08-31T09:35:48;29.80;29.50
80176;DHT22;71945;42.122;24.732;2023-08-31T09:38:15;29.90;28.00
80176;DHT22;71945;42.122;24.732;2023-08-31T09:40:41;30.00;26.90
80176;DHT22;71945;42.122;24.732;2023-08-31T09:43:07;30.00;27.80
80176;DHT22;71945;42.122;24.732;2023-08-31T09:45:34;30.10;26.70
80176;DHT22;71945;42.122;24.732;2023-08-31T09:48:01;30.10;27.40
80176;DHT22;71945;42.122;24.732;2023-08-31T09:50:32;30.10;27.50
80176;DHT22;71945;42.122;24.732;2023-08-31T09:53:02;30.10;27.00
80176;DHT22;71945;42.122;24.732;2023-08-31T09:55:30;30.20;27.00
80176;DHT22;71945;42.122;24.732;2023-08-31T09:58:00;30.20;26.20
80176;DHT22;71945;42.122;24.732;2023-08-31T10:00:26;30.20;26.30
80176;DHT22;71945;42.122;24.732;2023-08-31T10:03:00;30.30;26.10
80176;DHT22;71945;42.122;24.732;2023-08-31T10:05:30;30.30;25.90
80176;DHT22;71945;42.122;24.732;2023-08-31T10:07:57;30.40;26.00
80176;DHT22;71945;42.122;24.732;2023-08-31T10:10:24;30.40;25.60
80176;DHT22;71945;42.122;24.732;2023-08-31T10:12:50;30.50;25.60
80176;DHT22;71945;42.122;24.732;2023-08-31T10:15:17;30.50;25.30
80176;DHT22;71945;42.122;24.732;2023-08-31T10:17:44;30.60;25.00
80176;DHT22;71945;42.122;24.732;2023-08-31T10:20:11;30.70;24.80
80176;DHT22;71945;42.122;24.732;2023-08-31T10:22:38;30.90;24.50
80176;DHT22;71945;42.122;24.732;2023-08-31T10:25:07;30.90;24.10
80176;DHT22;71945;42.122;24.732;2023-08-31T10:27:43;31.00;23.90
80176;DHT22;71945;42.122;24.732;2023-08-31T10:32:38;31.10;23.70
80176;DHT22;71945;42.122;24.732;2023-08-31T10:35:05;31.10;23.10
80176;DHT22;71945;42.122;24.732;2023-08-31T10:37:31;31.30;23.20
80176;DHT22;71945;42.122;24.732;2023-08-31T10:40:10;31.40;23.10
80176;DHT22;71945;42.122;24.732;2023-08-31T10:42:47;31.50;23.00
80176;DHT22;71945;42.122;24.732;2023-08-31T10:45:43;31.70;23.30
80176;DHT22;71945;42.122;24.732;2023-08-31T10:48:09;31.80;22.90
80176;DHT22;71945;42.122;24.732;2023-08-31T10:50:41;31.80;23.30
80176;DHT22;71945;42.122;24.732;2023-08-31T10:53:12;32.00;22.50
80176;DHT22;71945;42.122;24.732;2023-08-31T10:55:56;32.10;22.50
80176;DHT22;71945;42.122;24.732;2023-08-31T10:58:34;32.20;22.40
80176;DHT22;71945;42.122;24.732;2023-08-31T11:01:00;32.20;21.90
80176;DHT22;71945;42.122;24.732;2023-08-31T11:03:31;32.20;21.40
80176;DHT22;71945;42.122;24.732;2023-08-31T11:06:14;32.40;21.30
80176;DHT22;71945;42.122;24.732;2023-08-31T11:08:40;32.40;21.50
80176;DHT22;71945;42.122;24.732;2023-08-31T11:11:06;32.40;21.20
80176;DHT22;71945;42.122;24.732;2023-08-31T11:13:31;32.50;21.40
80176;DHT22;71945;42.122;24.732;2023-08-31T11:16:06;32.60;21.20
80176;DHT22;71945;42.122;24.732;2023-08-31T11:18:31;32.60;21.30
80176;DHT22;71945;42.122;24.732;2023-08-31T11:20:59;32.60;21.50
80176;DHT22;71945;42.122;24.732;2023-08-31T11:23:25;32.60;21.30
80176;DHT22;71945;42.122;24.732;2023-08-31T11:25:51;32.80;21.40
80176;DHT22;71945;42.122;24.732;2023-08-31T11:28:17;32.90;21.10
80176;DHT22;71945;42.122;24.732;2023-08-31T11:30:42;33.10;21.30
80176;DHT22;71945;42.122;24.732;2023-08-31T11:33:09;33.30;20.40
80176;DHT22;71945;42.122;24.732;2023-08-31T11:35:38;33.40;20.20
80176;DHT22;71945;42.122;24.732;2023-08-31T11:38:07;33.60;20.20
80176;DHT22;71945;42.122;24.732;2023-08-31T11:40:33;33.70;20.20
80176;DHT22;71945;42.122;24.732;2023-08-31T11:42:59;33.80;20.20
80176;DHT22;71945;42.122;24.732;2023-08-31T11:45:35;34.00;20.10
80176;DHT22;71945;42.122;24.732;2023-08-31T11:48:02;34.20;20.00
80176;DHT22;71945;42.122;24.732;2023-08-31T11:50:28;34.40;20.00
80176;DHT22;71945;42.122;24.732;2023-08-31T11:52:54;34.60;19.00
80176;DHT22;71945;42.122;24.732;2023-08-31T11:55:21;34.80;19.80
80176;DHT22;71945;42.122;24.732;2023-08-31T11:57:54;35.00;18.50
80176;DHT22;71945;42.122;24.732;2023-08-31T12:00:23;35.20;18.30
80176;DHT22;71945;42.122;24.732;2023-08-31T12:03:00;35.30;18.30
80176;DHT22;71945;42.122;24.732;2023-08-31T12:05:27;35.50;18.00
80176;DHT22;71945;42.122;24.732;2023-08-31T12:07:56;35.60;18.00
80176;DHT22;71945;42.122;24.732;2023-08-31T12:10:25;35.80;17.20
80176;DHT22;71945;42.122;24.732;2023-08-31T12:12:51;35.90;17.20
80176;DHT22;71945;42.122;24.732;2023-08-31T12:15:18;35.90;17.10
80176;DHT22;71945;42.122;24.732;2023-08-31T12:17:47;35.90;17.10
80176;DHT22;71945;42.122;24.732;2023-08-31T12:20:16;35.90;17.10
80176;DHT22;71945;42.122;24.732;2023-08-31T12:22:45;35.90;17.40
80176;DHT22;71945;42.122;24.732;2023-08-31T12:25:20;35.90;17.30
80176;DHT22;71945;42.122;24.732;2023-08-31T12:27:45;35.80;17.10
80176;DHT22;71945;42.122;24.732;2023-08-31T12:30:12;35.90;17.10
80176;DHT22;71945;42.122;24.732;2023-08-31T12:32:43;35.90;17.30
80176;DHT22;71945;42.122;24.732;2023-08-31T12:35:09;35.70;17.80
80176;DHT22;71945;42.122;24.732;2023-08-31T12:37:36;35.70;17.80
80176;DHT22;71945;42.122;24.732;2023-08-31T12:40:04;35.80;17.90
80176;DHT22;71945;42.122;24.732;2023-08-31T12:42:32;36.00;17.40
80176;DHT22;71945;42.122;24.732;2023-08-31T12:44:58;36.10;17.50
80176;DHT22;71945;42.122;24.732;2023-08-31T12:47:23;36.20;17.40
80176;DHT22;71945;42.122;24.732;2023-08-31T12:49:51;36.30;17.10
80176;DHT22;71945;42.122;24.732;2023-08-31T12:52:20;36.50;18.10
80176;DHT22;71945;42.122;24.732;2023-08-31T12:54:49;36.60;17.00
80176;DHT22;71945;42.122;24.732;2023-08-31T12:57:15;36.70;16.80
80176;DHT22;71945;42.122;24.732;2023-08-31T12:59:58;36.80;16.50
80176;DHT22;71945;42.122;24.732;2023-08-31T13:02:26;36.90;16.50
80176;DHT22;71945;42.122;24.732;2023-08-31T13:04:52;37.00;16.50
80176;DHT22;71945;42.122;24.732;2023-08-31T13:07:20;37.10;16.10
80176;DHT22;71945;42.122;24.732;2023-08-31T13:09:46;37.30;15.80
80176;DHT22;71945;42.122;24.732;2023-08-31T13:12:12;37.30;15.80
80176;DHT22;71945;42.122;24.732;2023-08-31T13:14:37;37.30;15.50
80176;DHT22;71945;42.122;24.732;2023-08-31T13:17:07;37.30;15.50
80176;DHT22;71945;42.122;24.732;2023-08-31T13:19:33;37.20;15.40
80176;DHT22;71945;42.122;24.732;2023-08-31T13:21:58;37.20;15.40
80176;DHT22;71945;42.122;24.732;2023-08-31T13:24:24;37.10;15.60
80176;DHT22;71945;42.122;24.732;2023-08-31T13:26:53;37.20;15.60
80176;DHT22;71945;42.122;24.732;2023-08-31T13:29:18;37.30;15.60
80176;DHT22;71945;42.122;24.732;2023-08-31T13:31:48;37.30;16.70
80176;DHT22;71945;42.122;24.732;2023-08-31T13:34:14;37.10;15.80
80176;DHT22;71945;42.122;24.732;2023-08-31T13:36:41;37.00;15.90
80176;DHT22;71945;42.122;24.732;2023-08-31T13:39:09;36.70;16.10
80176;DHT22;71945;42.122;24.732;2023-08-31T13:41:35;36.50;16.20
80176;DHT22;71945;42.122;24.732;2023-08-31T13:44:00;36.40;16.10
80176;DHT22;71945;42.122;24.732;2023-08-31T13:46:26;36.20;16.30
80176;DHT22;71945;42.122;24.732;2023-08-31T13:48:54;35.90;16.80
80176;DHT22;71945;42.122;24.732;2023-08-31T13:51:24;35.70;17.20
80176;DHT22;71945;42.122;24.732;2023-08-31T13:53:52;35.50;17.70
80176;DHT22;71945;42.122;24.732;2023-08-31T13:56:18;35.40;18.50
80176;DHT22;71945;42.122;24.732;2023-08-31T13:58:43;35.20;18.40
80176;DHT22;71945;42.122;24.732;2023-08-31T14:01:09;35.00;18.60
80176;DHT22;71945;42.122;24.732;2023-08-31T14:03:34;35.00;19.00
80176;DHT22;71945;42.122;24.732;2023-08-31T14:06:00;34.90;18.90
80176;DHT22;71945;42.122;24.732;2023-08-31T14:08:26;34.90;18.50
80176;DHT22;71945;42.122;24.732;2023-08-31T14:10:53;35.10;18.80
80176;DHT22;71945;42.122;24.732;2023-08-31T14:13:22;35.30;19.00
80176;DHT22;71945;42.122;24.732;2023-08-31T14:15:48;35.50;18.70
80176;DHT22;71945;42.122;24.732;2023-08-31T14:18:27;35.70;17.70
80176;DHT22;71945;42.122;24.732;2023-08-31T14:20:57;35.70;16.20
80176;DHT22;71945;42.122;24.732;2023-08-31T14:23:24;35.90;16.30
80176;DHT22;71945;42.122;24.732;2023-08-31T14:25:53;36.20;16.60
80176;DHT22;71945;42.122;24.732;2023-08-31T14:28:29;36.20;16.50
80176;DHT22;71945;42.122;24.732;2023-08-31T14:30:54;36.30;16.40
80176;DHT22;71945;42.122;24.732;2023-08-31T14:33:20;36.50;15.90
80176;DHT22;71945;42.122;24.732;2023-08-31T14:35:46;36.40;16.20
80176;DHT22;71945;42.122;24.732;2023-08-31T14:38:11;36.30;16.30
80176;DHT22;71945;42.122;24.732;2023-08-31T14:40:40;36.00;16.20
80176;DHT22;71945;42.122;24.732;2023-08-31T14:43:07;35.80;16.70
80176;DHT22;71945;42.122;24.732;2023-08-31T14:45:33;35.40;16.60
80176;DHT22;71945;42.122;24.732;2023-08-31T14:47:59;35.30;17.40
80176;DHT22;71945;42.122;24.732;2023-08-31T14:50:24;35.30;17.70
80176;DHT22;71945;42.122;24.732;2023-08-31T14:52:50;35.20;17.60
80176;DHT22;71945;42.122;24.732;2023-08-31T14:55:16;35.10;17.80
80176;DHT22;71945;42.122;24.732;2023-08-31T14:57:44;35.10;17.70
80176;DHT22;71945;42.122;24.732;2023-08-31T15:00:13;35.20;17.20
80176;DHT22;71945;42.122;24.732;2023-08-31T15:02:48;35.10;17.50
80176;DHT22;71945;42.122;24.732;2023-08-31T15:05:17;35.00;17.80
80176;DHT22;71945;42.122;24.732;2023-08-31T15:07:43;34.80;18.10
80176;DHT22;71945;42.122;24.732;2023-08-31T15:10:09;34.70;18.30
80176;DHT22;71945;42.122;24.732;2023-08-31T15:12:34;34.80;18.40
80176;DHT22;71945;42.122;24.732;2023-08-31T15:15:01;34.80;18.10
80176;DHT22;71945;42.122;24.732;2023-08-31T15:17:28;34.60;18.10
80176;DHT22;71945;42.122;24.732;2023-08-31T15:20:03;34.50;18.20
80176;DHT22;71945;42.122;24.732;2023-08-31T15:22:33;34.20;18.20
80176;DHT22;71945;42.122;24.732;2023-08-31T15:24:59;33.90;18.80